sensor_id;sensor_type;location;lat;lon;timestamp;pressure;altitude;pressure_sealevel;temperature
29423;BMP180;16399;51.686;8.684;2023-09-19T00:00:58;99042.00;;;16.20
29423;BMP180;16399;51.686;8.684;2023-09-19T00:04:00;99052.00;;;16.20
29423;BMP180;16399;51.686;8.684;2023-09-19T00:07:04;99041.00;;;16.20
29423;BMP180;16399;51.686;8.684;2023-09-19T00:10:06;99038.00;;;16.20
29423;BMP180;16399;51.686;8.684;2023-09-19T00:13:10;99050.00;;;16.20
29423;BMP180;16399;51.686;8.684;2023-09-19T00:16:15;99062.00;;;16.20
29423;BMP180;16399;51.686;8.684;2023-09-19T00:19:19;99058.00;;;16.20
29423;BMP180;16399;51.686;8.684;2023-09-19T00:22:21;99067.00;;;16.10
29423;BMP180;16399;51.686;8.684;2023-09-19T00:25:23;99067.00;;;16.10
29423;BMP180;16399;51.686;8.684;2023-09-19T00:28:27;99069.00;;;16.10
29423;BMP180;16399;51.686;8.684;2023-09-19T00:31:31;99075.00;;;16.10
29423;BMP180;16399;51.686;8.684;2023-09-19T00:34:34;99080.00;;;16.00
29423;BMP180;16399;51.686;8.684;2023-09-19T00:37:37;99081.00;;;16.00
29423;BMP180;16399;51.686;8.684;2023-09-19T00:40:45;99086.00;;;16.00
29423;BMP180;16399;51.686;8.684;2023-09-19T00:43:48;99093.00;;;16.00
29423;BMP180;16399;51.686;8.684;2023-09-19T00:46:53;99085.00;;;16.00
29423;BMP180;16399;51.686;8.684;2023-09-19T00:49:56;99095.00;;;16.10
29423;BMP180;16399;51.686;8.684;2023-09-19T00:52:59;99090.00;;;16.00
29423;BMP180;16399;51.686;8.684;2023-09-19T00:56:02;99097.00;;;16.10
29423;BMP180;16399;51.686;8.684;2023-09-19T00:59:06;99091.00;;;16.10
29423;BMP180;16399;51.686;8.684;2023-09-19T01:02:09;99101.00;;;16.10
29423;BMP180;16399;51.686;8.684;2023-09-19T01:05:13;99110.00;;;16.00
29423;BMP180;16399;51.686;8.684;2023-09-19T01:08:16;99106.00;;;16.00
29423;BMP180;16399;51.686;8.684;2023-09-19T01:11:33;99108.00;;;16.00
29423;BMP180;16399;51.686;8.684;2023-09-19T01:14:45;99104.00;;;16.00
29423;BMP180;16399;51.686;8.684;2023-09-19T01:18:11;99114.00;;;16.00
29423;BMP180;16399;51.686;8.684;2023-09-19T01:28:06;99116.00;;;15.90
29423;BMP180;16399;51.686;8.684;2023-09-19T01:31:06;99119.00;;;15.90
29423;BMP180;16399;51.686;8.684;2023-09-19T01:34:10;99120.00;;;15.90
29423;BMP180;16399;51.686;8.684;2023-09-19T01:37:13;99117.00;;;15.90
29423;BMP180;16399;51.686;8.684;2023-09-19T01:40:21;99129.00;;;15.90
29423;BMP180;16399;51.686;8.684;2023-09-19T01:43:28;99131.00;;;15.80
29423;BMP180;16399;51.686;8.684;2023-09-19T01:46:37;99134.00;;;15.80
29423;BMP180;16399;51.686;8.684;2023-09-19T01:49:44;99132.00;;;15.80
29423;BMP180;16399;51.686;8.684;2023-09-19T01:52:53;99139.00;;;15.80
29423;BMP180;16399;51.686;8.684;2023-09-19T01:55:53;99141.00;;;15.80
29423;BMP180;16399;51.686;8.684;2023-09-19T01:58:59;99145.00;;;15.80
29423;BMP180;16399;51.686;8.684;2023-09-19T02:02:02;99149.00;;;15.80
29423;BMP180;16399;51.686;8.684;2023-09-19T02:05:05;99151.00;;;15.80
29423;BMP180;16399;51.686;8.684;2023-09-19T02:08:08;99150.00;;;15.80
29423;BMP180;16399;51.686;8.684;2023-09-19T02:11:14;99154.00;;;15.80
29423;BMP180;16399;51.686;8.684;2023-09-19T02:14:17;99154.00;;;15.80
29423;BMP180;16399;51.686;8.684;2023-09-19T02:17:21;99163.00;;;15.80
29423;BMP180;16399;51.686;8.684;2023-09-19T02:20:25;99171.00;;;15.80
29423;BMP180;16399;51.686;8.684;2023-09-19T02:23:27;99170.00;;;15.80
29423;BMP180;16399;51.686;8.684;2023-09-19T02:26:31;99174.00;;;15.80
29423;BMP180;16399;51.686;8.684;2023-09-19T02:29:33;99188.00;;;15.80
29423;BMP180;16399;51.686;8.684;2023-09-19T02:32:36;99186.00;;;15.80
29423;BMP180;16399;51.686;8.684;2023-09-19T02:35:39;99189.00;;;15.90
29423;BMP180;16399;51.686;8.684;2023-09-19T02:38:42;99186.00;;;15.90
29423;BMP180;16399;51.686;8.684;2023-09-19T02:41:44;99179.00;;;15.90
29423;BMP180;16399;51.686;8.684;2023-09-19T02:44:47;99183.00;;;15.90
29423;BMP180;16399;51.686;8.684;2023-09-19T02:47:50;99189.00;;;15.90
29423;BMP180;16399;51.686;8.684;2023-09-19T02:50:52;99186.00;;;15.90
29423;BMP180;16399;51.686;8.684;2023-09-19T02:53:54;99197.00;;;15.80
29423;BMP180;16399;51.686;8.684;2023-09-19T02:56:56;99192.00;;;15.80
29423;BMP180;16399;51.686;8.684;2023-09-19T03:00:00;99184.00;;;15.80
29423;BMP180;16399;51.686;8.684;2023-09-19T03:03:02;99186.00;;;15.80
29423;BMP180;16399;51.686;8.684;2023-09-19T03:06:06;99189.00;;;15.80
29423;BMP180;16399;51.686;8.684;2023-09-19T03:09:10;99186.00;;;15.80
29423;BMP180;16399;51.686;8.684;2023-09-19T03:12:12;99183.00;;;15.80
29423;BMP180;16399;51.686;8.684;2023-09-19T03:15:16;99188.00;;;15.80
29423;BMP180;16399;51.686;8.684;2023-09-19T03:18:20;99195.00;;;15.80
29423;BMP180;16399;51.686;8.684;2023-09-19T03:21:22;99200.00;;;15.70
29423;BMP180;16399;51.686;8.684;2023-09-19T03:24:25;99204.00;;;15.70
29423;BMP180;16399;51.686;8.684;2023-09-19T03:27:28;99208.00;;;15.70
29423;BMP180;16399;51.686;8.684;2023-09-19T03:30:30;99215.00;;;15.70
29423;BMP180;16399;51.686;8.684;2023-09-19T03:33:34;99216.00;;;15.70
29423;BMP180;16399;51.686;8.684;2023-09-19T03:36:37;99219.00;;;15.60
29423;BMP180;16399;51.686;8.684;2023-09-19T03:39:39;99214.00;;;15.60
29423;BMP180;16399;51.686;8.684;2023-09-19T03:42:42;99218.00;;;15.60
29423;BMP180;16399;51.686;8.684;2023-09-19T03:45:44;99205.00;;;15.60
29423;BMP180;16399;51.686;8.684;2023-09-19T03:48:47;99219.00;;;15.50
29423;BMP180;16399;51.686;8.684;2023-09-19T03:51:50;99232.00;;;15.50
29423;BMP180;16399;51.686;8.684;2023-09-19T03:54:52;99216.00;;;15.50
29423;BMP180;16399;51.686;8.684;2023-09-19T03:57:55;99224.00;;;15.40
29423;BMP180;16399;51.686;8.684;2023-09-19T04:00:57;99214.00;;;15.40
29423;BMP180;16399;51.686;8.684;2023-09-19T04:04:00;99223.00;;;15.40
29423;BMP180;16399;51.686;8.684;2023-09-19T04:07:04;99224.00;;;15.30
29423;BMP180;16399;51.686;8.684;2023-09-19T04:10:07;99215.00;;;15.30
29423;BMP180;16399;51.686;8.684;2023-09-19T04:13:10;99211.00;;;15.20
29423;BMP180;16399;51.686;8.684;2023-09-19T04:16:12;99207.00;;;15.20
29423;BMP180;16399;51.686;8.684;2023-09-19T04:19:15;99208.00;;;15.20
29423;BMP180;16399;51.686;8.684;2023-09-19T04:22:18;99216.00;;;15.20
29423;BMP180;16399;51.686;8.684;2023-09-19T04:25:20;99210.00;;;15.10
29423;BMP180;16399;51.686;8.684;2023-09-19T04:28:23;99223.00;;;15.10
29423;BMP180;16399;51.686;8.684;2023-09-19T04:31:25;99227.00;;;15.10
29423;BMP180;16399;51.686;8.684;2023-09-19T04:34:28;99232.00;;;15.10
29423;BMP180;16399;51.686;8.684;2023-09-19T04:37:31;99234.00;;;15.10
29423;BMP180;16399;51.686;8.684;2023-09-19T04:40:34;99236.00;;;15.10
29423;BMP180;16399;51.686;8.684;2023-09-19T04:43:37;99230.00;;;15.00
29423;BMP180;16399;51.686;8.684;2023-09-19T04:46:39;99243.00;;;15.00
29423;BMP180;16399;51.686;8.684;2023-09-19T04:49:41;99231.00;;;15.00
29423;BMP180;16399;51.686;8.684;2023-09-19T04:52:44;99240.00;;;15.00
29423;BMP180;16399;51.686;8.684;2023-09-19T04:55:53;99246.00;;;15.00
29423;BMP180;16399;51.686;8.684;2023-09-19T04:59:00;99250.00;;;15.00
29423;BMP180;16399;51.686;8.684;2023-09-19T05:02:02;99257.00;;;14.90
29423;BMP180;16399;51.686;8.684;2023-09-19T05:05:04;99268.00;;;14.90
29423;BMP180;16399;51.686;8.684;2023-09-19T05:08:07;99260.00;;;14.90
29423;BMP180;16399;51.686;8.684;2023-09-19T05:11:10;99273.00;;;14.90
29423;BMP180;16399;51.686;8.684;2023-09-19T05:14:13;99270.00;;;14.80
29423;BMP180;16399;51.686;8.684;2023-09-19T05:17:15;99278.00;;;14.80
29423;BMP180;16399;51.686;8.684;2023-09-19T05:20:18;99285.00;;;14.80
29423;BMP180;16399;51.686;8.684;2023-09-19T05:23:22;99289.00;;;14.70
29423;BMP180;16399;51.686;8.684;2023-09-19T05:26:24;99289.00;;;14.70
29423;BMP180;16399;51.686;8.684;2023-09-19T05:29:27;99286.00;;;14.70
29423;BMP180;16399;51.686;8.684;2023-09-19T05:32:30;99299.00;;;14.60
29423;BMP180;16399;51.686;8.684;2023-09-19T05:35:32;99294.00;;;14.60
29423;BMP180;16399;51.686;8.684;2023-09-19T05:38:35;99299.00;;;14.60
29423;BMP180;16399;51.686;8.684;2023-09-19T05:41:38;99310.00;;;14.60
29423;BMP180;16399;51.686;8.684;2023-09-19T05:44:41;99309.00;;;14.60
29423;BMP180;16399;51.686;8.684;2023-09-19T05:47:43;99319.00;;;14.60
29423;BMP180;16399;51.686;8.684;2023-09-19T05:50:46;99323.00;;;14.70
29423;BMP180;16399;51.686;8.684;2023-09-19T05:53:50;99329.00;;;14.70
29423;BMP180;16399;51.686;8.684;2023-09-19T05:56:53;99323.00;;;14.70
29423;BMP180;16399;51.686;8.684;2023-09-19T05:59:55;99337.00;;;14.70
29423;BMP180;16399;51.686;8.684;2023-09-19T06:02:59;99336.00;;;14.70
29423;BMP180;16399;51.686;8.684;2023-09-19T06:06:04;99334.00;;;14.80
29423;BMP180;16399;51.686;8.684;2023-09-19T06:09:07;99351.00;;;14.80
29423;BMP180;16399;51.686;8.684;2023-09-19T06:12:10;99358.00;;;14.80
29423;BMP180;16399;51.686;8.684;2023-09-19T06:15:14;99347.00;;;14.80
29423;BMP180;16399;51.686;8.684;2023-09-19T06:18:18;99360.00;;;14.90
29423;BMP180;16399;51.686;8.684;2023-09-19T06:21:23;99350.00;;;14.90
29423;BMP180;16399;51.686;8.684;2023-09-19T06:24:25;99360.00;;;14.90
29423;BMP180;16399;51.686;8.684;2023-09-19T06:27:27;99357.00;;;14.90
29423;BMP180;16399;51.686;8.684;2023-09-19T06:30:30;99357.00;;;14.90
29423;BMP180;16399;51.686;8.684;2023-09-19T06:33:33;99357.00;;;15.00
29423;BMP180;16399;51.686;8.684;2023-09-19T06:36:35;99353.00;;;15.00
29423;BMP180;16399;51.686;8.684;2023-09-19T06:39:38;99353.00;;;15.10
29423;BMP180;16399;51.686;8.684;2023-09-19T06:42:46;99349.00;;;15.10
29423;BMP180;16399;51.686;8.684;2023-09-19T06:45:49;99349.00;;;15.20
29423;BMP180;16399;51.686;8.684;2023-09-19T06:48:53;99357.00;;;15.30
29423;BMP180;16399;51.686;8.684;2023-09-19T06:51:55;99344.00;;;15.30
29423;BMP180;16399;51.686;8.684;2023-09-19T06:54:58;99354.00;;;15.30
29423;BMP180;16399;51.686;8.684;2023-09-19T06:58:01;99355.00;;;15.40
29423;BMP180;16399;51.686;8.684;2023-09-19T07:01:03;99356.00;;;15.40
29423;BMP180;16399;51.686;8.684;2023-09-19T07:04:05;99349.00;;;15.40
29423;BMP180;16399;51.686;8.684;2023-09-19T07:07:08;99359.00;;;15.50
29423;BMP180;16399;51.686;8.684;2023-09-19T07:10:11;99359.00;;;15.50
29423;BMP180;16399;51.686;8.684;2023-09-19T07:13:15;99351.00;;;15.60
29423;BMP180;16399;51.686;8.684;2023-09-19T07:16:19;99355.00;;;15.60
29423;BMP180;16399;51.686;8.684;2023-09-19T07:19:23;99350.00;;;15.70
29423;BMP180;16399;51.686;8.684;2023-09-19T07:22:27;99355.00;;;15.70
29423;BMP180;16399;51.686;8.684;2023-09-19T07:25:30;99371.00;;;15.80
29423;BMP180;16399;51.686;8.684;2023-09-19T07:28:32;99370.00;;;15.80
29423;BMP180;16399;51.686;8.684;2023-09-19T07:31:36;99370.00;;;15.90
29423;BMP180;16399;51.686;8.684;2023-09-19T07:34:38;99377.00;;;15.90
29423;BMP180;16399;51.686;8.684;2023-09-19T07:37:41;99384.00;;;15.90
29423;BMP180;16399;51.686;8.684;2023-09-19T07:40:44;99376.00;;;16.00
29423;BMP180;16399;51.686;8.684;2023-09-19T07:43:46;99388.00;;;16.00
29423;BMP180;16399;51.686;8.684;2023-09-19T07:46:48;99397.00;;;16.10
29423;BMP180;16399;51.686;8.684;2023-09-19T07:49:52;99392.00;;;16.00
29423;BMP180;16399;51.686;8.684;2023-09-19T07:52:54;99394.00;;;16.10
29423;BMP180;16399;51.686;8.684;2023-09-19T07:56:05;99384.00;;;16.20
29423;BMP180;16399;51.686;8.684;2023-09-19T07:59:07;99368.00;;;16.30
29423;BMP180;16399;51.686;8.684;2023-09-19T08:02:12;99382.00;;;16.30
29423;BMP180;16399;51.686;8.684;2023-09-19T08:05:20;99387.00;;;16.50
29423;BMP180;16399;51.686;8.684;2023-09-19T08:08:22;99379.00;;;16.60
29423;BMP180;16399;51.686;8.684;2023-09-19T08:11:24;99385.00;;;16.70
29423;BMP180;16399;51.686;8.684;2023-09-19T08:14:26;99389.00;;;16.80
29423;BMP180;16399;51.686;8.684;2023-09-19T08:17:34;99392.00;;;16.90
29423;BMP180;16399;51.686;8.684;2023-09-19T08:20:37;99383.00;;;16.90
29423;BMP180;16399;51.686;8.684;2023-09-19T08:23:40;99389.00;;;16.90
29423;BMP180;16399;51.686;8.684;2023-09-19T08:26:43;99387.00;;;16.90
29423;BMP180;16399;51.686;8.684;2023-09-19T08:29:46;99385.00;;;17.00
29423;BMP180;16399;51.686;8.684;2023-09-19T08:32:48;99381.00;;;17.00
29423;BMP180;16399;51.686;8.684;2023-09-19T08:35:51;99382.00;;;17.10
29423;BMP180;16399;51.686;8.684;2023-09-19T08:38:53;99378.00;;;17.20
29423;BMP180;16399;51.686;8.684;2023-09-19T08:41:58;99382.00;;;17.30
29423;BMP180;16399;51.686;8.684;2023-09-19T08:45:01;99378.00;;;17.40
29423;BMP180;16399;51.686;8.684;2023-09-19T08:51:41;99379.00;;;17.50
29423;BMP180;16399;51.686;8.684;2023-09-19T08:54:50;99397.00;;;17.60
29423;BMP180;16399;51.686;8.684;2023-09-19T08:58:02;99394.00;;;17.70
29423;BMP180;16399;51.686;8.684;2023-09-19T09:01:06;99390.00;;;17.80
29423;BMP180;16399;51.686;8.684;2023-09-19T09:04:10;99405.00;;;17.80
29423;BMP180;16399;51.686;8.684;2023-09-19T09:07:14;99405.00;;;17.80
29423;BMP180;16399;51.686;8.684;2023-09-19T09:10:19;99403.00;;;17.80
29423;BMP180;16399;51.686;8.684;2023-09-19T09:13:24;99394.00;;;17.70
29423;BMP180;16399;51.686;8.684;2023-09-19T09:16:29;99411.00;;;17.70
29423;BMP180;16399;51.686;8.684;2023-09-19T09:19:32;99403.00;;;17.60
29423;BMP180;16399;51.686;8.684;2023-09-19T09:22:34;99413.00;;;17.70
29423;BMP180;16399;51.686;8.684;2023-09-19T09:25:55;99400.00;;;17.80
29423;BMP180;16399;51.686;8.684;2023-09-19T09:29:08;99405.00;;;17.90
29423;BMP180;16399;51.686;8.684;2023-09-19T09:35:27;99418.00;;;18.10
29423;BMP180;16399;51.686;8.684;2023-09-19T09:38:46;99419.00;;;18.10
29423;BMP180;16399;51.686;8.684;2023-09-19T09:41:49;99415.00;;;18.10
29423;BMP180;16399;51.686;8.684;2023-09-19T09:45:11;99419.00;;;18.10
29423;BMP180;16399;51.686;8.684;2023-09-19T09:47:59;99413.00;;;18.10
29423;BMP180;16399;51.686;8.684;2023-09-19T09:51:03;99410.00;;;18.20
29423;BMP180;16399;51.686;8.684;2023-09-19T09:54:12;99407.00;;;18.40
29423;BMP180;16399;51.686;8.684;2023-09-19T09:57:16;99416.00;;;18.40
29423;BMP180;16399;51.686;8.684;2023-09-19T10:00:18;99412.00;;;18.50
29423;BMP180;16399;51.686;8.684;2023-09-19T10:03:21;99425.00;;;18.50
29423;BMP180;16399;51.686;8.684;2023-09-19T10:06:26;99409.00;;;18.50
29423;BMP180;16399;51.686;8.684;2023-09-19T10:09:29;99419.00;;;18.50
29423;BMP180;16399;51.686;8.684;2023-09-19T10:12:33;99414.00;;;18.60
29423;BMP180;16399;51.686;8.684;2023-09-19T10:15:38;99414.00;;;18.70
29423;BMP180;16399;51.686;8.684;2023-09-19T10:18:42;99413.00;;;18.80
29423;BMP180;16399;51.686;8.684;2023-09-19T10:21:45;99413.00;;;18.90
29423;BMP180;16399;51.686;8.684;2023-09-19T10:24:49;99407.00;;;18.90
29423;BMP180;16399;51.686;8.684;2023-09-19T10:27:54;99397.00;;;19.00
29423;BMP180;16399;51.686;8.684;2023-09-19T10:31:02;99409.00;;;19.00
29423;BMP180;16399;51.686;8.684;2023-09-19T10:34:05;99418.00;;;19.00
29423;BMP180;16399;51.686;8.684;2023-09-19T10:37:12;99407.00;;;19.00
29423;BMP180;16399;51.686;8.684;2023-09-19T10:40:14;99414.00;;;19.00
29423;BMP180;16399;51.686;8.684;2023-09-19T10:43:19;99410.00;;;19.10
29423;BMP180;16399;51.686;8.684;2023-09-19T10:46:22;99409.00;;;19.10
29423;BMP180;16399;51.686;8.684;2023-09-19T10:49:25;99421.00;;;19.20
29423;BMP180;16399;51.686;8.684;2023-09-19T10:52:27;99417.00;;;19.20
29423;BMP180;16399;51.686;8.684;2023-09-19T10:55:32;99416.00;;;19.20
29423;BMP180;16399;51.686;8.684;2023-09-19T10:58:36;99406.00;;;19.30
29423;BMP180;16399;51.686;8.684;2023-09-19T11:01:50;99401.00;;;19.40
29423;BMP180;16399;51.686;8.684;2023-09-19T11:04:53;99418.00;;;19.50
29423;BMP180;16399;51.686;8.684;2023-09-19T11:07:59;99420.00;;;19.60
29423;BMP180;16399;51.686;8.684;2023-09-19T11:11:06;99417.00;;;19.60
29423;BMP180;16399;51.686;8.684;2023-09-19T11:17:38;99400.00;;;19.50
29423;BMP180;16399;51.686;8.684;2023-09-19T11:20:46;99395.00;;;19.40
29423;BMP180;16399;51.686;8.684;2023-09-19T11:24:37;99399.00;;;19.50
29423;BMP180;16399;51.686;8.684;2023-09-19T11:27:30;99400.00;;;19.70
29423;BMP180;16399;51.686;8.684;2023-09-19T11:30:26;99403.00;;;19.70
29423;BMP180;16399;51.686;8.684;2023-09-19T11:33:33;99408.00;;;19.70
29423;BMP180;16399;51.686;8.684;2023-09-19T11:36:37;99414.00;;;19.60
29423;BMP180;16399;51.686;8.684;2023-09-19T11:39:40;99390.00;;;19.40
29423;BMP180;16399;51.686;8.684;2023-09-19T11:42:44;99385.00;;;19.50
29423;BMP180;16399;51.686;8.684;2023-09-19T11:49:06;99394.00;;;19.40
29423;BMP180;16399;51.686;8.684;2023-09-19T11:52:21;99389.00;;;19.30
29423;BMP180;16399;51.686;8.684;2023-09-19T11:55:19;99383.00;;;19.40
29423;BMP180;16399;51.686;8.684;2023-09-19T11:58:22;99385.00;;;19.40
29423;BMP180;16399;51.686;8.684;2023-09-19T12:01:31;99374.00;;;19.50
29423;BMP180;16399;51.686;8.684;2023-09-19T12:04:34;99389.00;;;19.60
29423;BMP180;16399;51.686;8.684;2023-09-19T12:07:44;99381.00;;;19.60
29423;BMP180;16399;51.686;8.684;2023-09-19T12:10:50;99379.00;;;19.70
29423;BMP180;16399;51.686;8.684;2023-09-19T12:13:53;99374.00;;;19.90
29423;BMP180;16399;51.686;8.684;2023-09-19T12:16:57;99386.00;;;19.90
29423;BMP180;16399;51.686;8.684;2023-09-19T12:20:02;99381.00;;;20.00
29423;BMP180;16399;51.686;8.684;2023-09-19T12:23:14;99371.00;;;20.00
29423;BMP180;16399;51.686;8.684;2023-09-19T12:26:17;99371.00;;;20.10
29423;BMP180;16399;51.686;8.684;2023-09-19T12:29:22;99372.00;;;20.30
29423;BMP180;16399;51.686;8.684;2023-09-19T12:32:35;99375.00;;;20.50
29423;BMP180;16399;51.686;8.684;2023-09-19T12:35:37;99359.00;;;20.60
29423;BMP180;16399;51.686;8.684;2023-09-19T12:38:42;99371.00;;;20.80
29423;BMP180;16399;51.686;8.684;2023-09-19T12:41:46;99370.00;;;20.70
29423;BMP180;16399;51.686;8.684;2023-09-19T12:44:51;99358.00;;;20.70
29423;BMP180;16399;51.686;8.684;2023-09-19T12:48:22;99367.00;;;20.70
29423;BMP180;16399;51.686;8.684;2023-09-19T12:51:34;99376.00;;;20.60
29423;BMP180;16399;51.686;8.684;2023-09-19T12:54:41;99359.00;;;20.50
29423;BMP180;16399;51.686;8.684;2023-09-19T13:00:59;99347.00;;;20.50
29423;BMP180;16399;51.686;8.684;2023-09-19T13:04:20;99357.00;;;20.50
29423;BMP180;16399;51.686;8.684;2023-09-19T13:07:43;99349.00;;;20.50
29423;BMP180;16399;51.686;8.684;2023-09-19T13:14:19;99359.00;;;20.30
29423;BMP180;16399;51.686;8.684;2023-09-19T13:17:21;99358.00;;;20.20
29423;BMP180;16399;51.686;8.684;2023-09-19T13:20:25;99342.00;;;20.20
29423;BMP180;16399;51.686;8.684;2023-09-19T13:23:32;99345.00;;;20.10
29423;BMP180;16399;51.686;8.684;2023-09-19T13:26:35;99341.00;;;20.10
29423;BMP180;16399;51.686;8.684;2023-09-19T13:29:37;99338.00;;;20.20
29423;BMP180;16399;51.686;8.684;2023-09-19T13:32:39;99345.00;;;20.20
29423;BMP180;16399;51.686;8.684;2023-09-19T13:35:43;99334.00;;;20.20
29423;BMP180;16399;51.686;8.684;2023-09-19T13:38:46;99340.00;;;20.20
29423;BMP180;16399;51.686;8.684;2023-09-19T13:41:49;99331.00;;;20.20
29423;BMP180;16399;51.686;8.684;2023-09-19T13:44:52;99336.00;;;20.40
29423;BMP180;16399;51.686;8.684;2023-09-19T13:47:54;99336.00;;;20.40
29423;BMP180;16399;51.686;8.684;2023-09-19T13:50:57;99325.00;;;20.40
29423;BMP180;16399;51.686;8.684;2023-09-19T13:53:59;99336.00;;;20.40
29423;BMP180;16399;51.686;8.684;2023-09-19T13:57:02;99338.00;;;20.50
29423;BMP180;16399;51.686;8.684;2023-09-19T14:00:05;99334.00;;;20.50
29423;BMP180;16399;51.686;8.684;2023-09-19T14:03:09;99333.00;;;20.60
29423;BMP180;16399;51.686;8.684;2023-09-19T14:06:12;99334.00;;;20.60
29423;BMP180;16399;51.686;8.684;2023-09-19T14:09:14;99330.00;;;20.60
29423;BMP180;16399;51.686;8.684;2023-09-19T14:12:18;99332.00;;;20.60
29423;BMP180;16399;51.686;8.684;2023-09-19T14:15:21;99336.00;;;20.50
29423;BMP180;16399;51.686;8.684;2023-09-19T14:18:25;99340.00;;;20.40
29423;BMP180;16399;51.686;8.684;2023-09-19T14:21:27;99326.00;;;20.20
29423;BMP180;16399;51.686;8.684;2023-09-19T14:24:29;99326.00;;;20.20
29423;BMP180;16399;51.686;8.684;2023-09-19T14:27:32;99328.00;;;20.30
29423;BMP180;16399;51.686;8.684;2023-09-19T14:30:34;99327.00;;;20.40
29423;BMP180;16399;51.686;8.684;2023-09-19T14:33:38;99324.00;;;20.50
29423;BMP180;16399;51.686;8.684;2023-09-19T14:36:41;99319.00;;;20.50
29423;BMP180;16399;51.686;8.684;2023-09-19T14:39:43;99329.00;;;20.60
29423;BMP180;16399;51.686;8.684;2023-09-19T14:42:49;99316.00;;;20.70
29423;BMP180;16399;51.686;8.684;2023-09-19T14:45:51;99321.00;;;20.70
29423;BMP180;16399;51.686;8.684;2023-09-19T14:48:54;99317.00;;;20.70
29423;BMP180;16399;51.686;8.684;2023-09-19T14:51:59;99321.00;;;20.70
29423;BMP180;16399;51.686;8.684;2023-09-19T14:55:04;99318.00;;;20.70
29423;BMP180;16399;51.686;8.684;2023-09-19T14:58:07;99318.00;;;20.70
29423;BMP180;16399;51.686;8.684;2023-09-19T15:01:12;99319.00;;;20.70
29423;BMP180;16399;51.686;8.684;2023-09-19T15:04:14;99322.00;;;20.70
29423;BMP180;16399;51.686;8.684;2023-09-19T15:07:17;99317.00;;;20.70
29423;BMP180;16399;51.686;8.684;2023-09-19T15:10:19;99326.00;;;20.70
29423;BMP180;16399;51.686;8.684;2023-09-19T15:13:23;99327.00;;;20.70
29423;BMP180;16399;51.686;8.684;2023-09-19T15:16:27;99330.00;;;20.70
29423;BMP180;16399;51.686;8.684;2023-09-19T15:19:29;99339.00;;;20.50
29423;BMP180;16399;51.686;8.684;2023-09-19T15:22:33;99337.00;;;20.40
29423;BMP180;16399;51.686;8.684;2023-09-19T15:25:36;99349.00;;;20.30
29423;BMP180;16399;51.686;8.684;2023-09-19T15:28:38;99345.00;;;20.20
29423;BMP180;16399;51.686;8.684;2023-09-19T15:31:40;99344.00;;;20.00
29423;BMP180;16399;51.686;8.684;2023-09-19T15:34:43;99354.00;;;20.00
29423;BMP180;16399;51.686;8.684;2023-09-19T15:37:45;99353.00;;;19.90
29423;BMP180;16399;51.686;8.684;2023-09-19T15:40:47;99354.00;;;19.80
29423;BMP180;16399;51.686;8.684;2023-09-19T15:43:50;99346.00;;;19.70
29423;BMP180;16399;51.686;8.684;2023-09-19T15:46:52;99344.00;;;19.60
29423;BMP180;16399;51.686;8.684;2023-09-19T15:49:54;99348.00;;;19.60
29423;BMP180;16399;51.686;8.684;2023-09-19T15:52:57;99349.00;;;19.60
29423;BMP180;16399;51.686;8.684;2023-09-19T15:56:05;99336.00;;;19.50
29423;BMP180;16399;51.686;8.684;2023-09-19T15:59:04;99344.00;;;19.50
29423;BMP180;16399;51.686;8.684;2023-09-19T16:02:07;99336.00;;;19.50
29423;BMP180;16399;51.686;8.684;2023-09-19T16:05:09;99339.00;;;19.50
29423;BMP180;16399;51.686;8.684;2023-09-19T16:08:13;99340.00;;;19.50
29423;BMP180;16399;51.686;8.684;2023-09-19T16:11:17;99340.00;;;19.50
29423;BMP180;16399;51.686;8.684;2023-09-19T16:14:20;99340.00;;;19.40
29423;BMP180;16399;51.686;8.684;2023-09-19T16:17:23;99339.00;;;19.40
29423;BMP180;16399;51.686;8.684;2023-09-19T16:20:25;99333.00;;;19.40
29423;BMP180;16399;51.686;8.684;2023-09-19T16:23:29;99351.00;;;19.40
29423;BMP180;16399;51.686;8.684;2023-09-19T16:26:33;99344.00;;;19.40
29423;BMP180;16399;51.686;8.684;2023-09-19T16:29:35;99350.00;;;19.40
29423;BMP180;16399;51.686;8.684;2023-09-19T16:32:37;99363.00;;;19.40
29423;BMP180;16399;51.686;8.684;2023-09-19T16:35:40;99360.00;;;19.30
29423;BMP180;16399;51.686;8.684;2023-09-19T16:38:43;99355.00;;;19.30
29423;BMP180;16399;51.686;8.684;2023-09-19T16:41:46;99351.00;;;19.30
29423;BMP180;16399;51.686;8.684;2023-09-19T16:44:48;99360.00;;;19.30
29423;BMP180;16399;51.686;8.684;2023-09-19T16:47:51;99355.00;;;19.30
29423;BMP180;16399;51.686;8.684;2023-09-19T16:50:54;99356.00;;;19.20
29423;BMP180;16399;51.686;8.684;2023-09-19T16:53:56;99354.00;;;19.20
29423;BMP180;16399;51.686;8.684;2023-09-19T16:56:59;99351.00;;;19.20
29423;BMP180;16399;51.686;8.684;2023-09-19T17:00:03;99352.00;;;19.10
29423;BMP180;16399;51.686;8.684;2023-09-19T17:03:06;99349.00;;;19.10
29423;BMP180;16399;51.686;8.684;2023-09-19T17:06:13;99347.00;;;19.00
29423;BMP180;16399;51.686;8.684;2023-09-19T17:09:16;99344.00;;;19.00
29423;BMP180;16399;51.686;8.684;2023-09-19T17:12:19;99340.00;;;18.90
29423;BMP180;16399;51.686;8.684;2023-09-19T17:15:22;99343.00;;;18.90
29423;BMP180;16399;51.686;8.684;2023-09-19T17:18:25;99352.00;;;18.80
29423;BMP180;16399;51.686;8.684;2023-09-19T17:21:28;99344.00;;;18.80
29423;BMP180;16399;51.686;8.684;2023-09-19T17:24:30;99352.00;;;18.70
29423;BMP180;16399;51.686;8.684;2023-09-19T17:27:33;99351.00;;;18.60
29423;BMP180;16399;51.686;8.684;2023-09-19T17:30:36;99353.00;;;18.60
29423;BMP180;16399;51.686;8.684;2023-09-19T17:33:40;99351.00;;;18.50
29423;BMP180;16399;51.686;8.684;2023-09-19T17:36:44;99352.00;;;18.50
29423;BMP180;16399;51.686;8.684;2023-09-19T17:39:47;99341.00;;;18.40
29423;BMP180;16399;51.686;8.684;2023-09-19T17:42:49;99353.00;;;18.40
29423;BMP180;16399;51.686;8.684;2023-09-19T17:45:51;99346.00;;;18.30
29423;BMP180;16399;51.686;8.684;2023-09-19T17:48:56;99350.00;;;18.30
29423;BMP180;16399;51.686;8.684;2023-09-19T17:51:59;99338.00;;;18.20
29423;BMP180;16399;51.686;8.684;2023-09-19T17:55:01;99343.00;;;18.20
29423;BMP180;16399;51.686;8.684;2023-09-19T17:58:04;99345.00;;;18.20
29423;BMP180;16399;51.686;8.684;2023-09-19T18:01:11;99350.00;;;18.20
29423;BMP180;16399;51.686;8.684;2023-09-19T18:04:14;99354.00;;;18.10
29423;BMP180;16399;51.686;8.684;2023-09-19T18:07:16;99349.00;;;18.10